BWU weather

Sydney Bankstown Airport
Sydney, New South Wales, Australia

Public forecast

Using degrees Celsius for public forecast. Weather courtesy of forecast.io.

METAR (pilot weather report)

Closest report is Sydney Kingsford Smith International Airport, 9.5 nm (17.6 km) E. Retrieved 2018/01/21 16:30 UTC (16 minutes ago):

YSSY 211630Z 03008KT CAVOK 23/21 Q1009

TAF (pilot weather forecast)

Closest forecast is Sydney Kingsford Smith International Airport, 9.5 nm (17.6 km) E. Retrieved 2018/01/21 12:00 UTC (5 hours ago):

TAF YSSY 211110Z 2112/2218 01010KT CAVOK FM220200 05018G28KT CAVOK FM221000 02012KT 9999 FEW010 FM221400 01010KT CAVOK